Time;durP1;ratioP1;P1;durP2;ratioP2;P2;SDS_P1;SDS_P2;PMS_P1;PMS_P2;Temp;Humidity;BMP_temperature;BMP_pressure;BME280_temperature;BME280_humidity;BME280_pressure;Samples;Min_cycle;Max_cycle;Signal;HPM_P1;HPM_P2
2021/04/11 09:49:08;;;;;;;2.83;0.60;;;6.70;99.90;;;;;;6091041;23;20215;-70
2021/04/11 09:51:53;;;;;;;0.73;0.53;;;6.80;99.90;;;;;;6095800;23;20657;-70
2021/04/11 09:54:28;;;;;;;1.23;0.50;;;6.90;99.90;;;;;;6095214;23;20214;-70
2021/04/11 09:57:15;;;;;;;1.07;0.50;;;7.10;99.90;;;;;;6066920;23;20192;-69
2021/04/11 09:59:51;;;;;;;1.83;0.60;;;7.30;99.90;;;;;;6066899;23;20202;-71
2021/04/11 10:02:31;;;;;;;1.70;0.70;;;7.30;99.90;;;;;;6066590;23;20184;-69
2021/04/11 10:05:12;;;;;;;0.70;0.50;;;7.50;99.90;;;;;;6066892;23;20215;-71
2021/04/11 10:07:59;;;;;;;4.83;0.80;;;7.40;99.90;;;;;;6067346;23;20180;-72
2021/04/11 10:10:34;;;;;;;4.53;0.57;;;7.40;99.90;;;;;;6066692;23;20195;-72
2021/04/11 10:13:21;;;;;;;1.80;0.60;;;7.40;99.90;;;;;;6067203;23;20184;-71
2021/04/11 10:15:58;;;;;;;2.97;0.50;;;7.60;99.90;;;;;;6066265;23;20215;-74
2021/04/11 10:18:54;;;;;;;1.90;0.50;;;7.80;99.90;;;;;;6065907;23;20180;-73
2021/04/11 10:21:27;;;;;;;0.50;0.40;;;7.90;99.90;;;;;;6042983;23;20192;-69
2021/04/11 10:24:08;;;;;;;0.93;0.50;;;8.10;99.90;;;;;;6068819;23;20225;-69
2021/04/11 10:26:41;;;;;;;1.50;0.50;;;8.20;99.90;;;;;;6068024;23;20216;-69
2021/04/11 10:29:13;;;;;;;2.17;0.43;;;8.20;99.90;;;;;;6068569;23;20542;-70
2021/04/11 10:31:45;;;;;;;1.10;0.43;;;8.30;99.90;;;;;;6068698;23;20476;-70
2021/04/11 10:34:17;;;;;;;0.73;0.50;;;8.30;99.90;;;;;;6068585;23;20180;-70
2021/04/11 10:36:50;;;;;;;1.23;0.70;;;8.30;99.90;;;;;;6068515;23;20208;-69
2021/04/11 10:39:23;;;;;;;2.10;0.63;;;8.40;99.90;;;;;;6068590;23;20508;-71
2021/04/11 10:42:11;;;;;;;2.23;0.50;;;8.60;99.90;;;;;;6068059;23;20240;-69
2021/04/11 10:44:58;;;;;;;1.27;0.50;;;8.80;99.90;;;;;;6010944;23;20507;-70
2021/04/11 10:47:56;;;;;;;2.30;0.60;;;9.10;99.90;;;;;;6063021;23;20183;-76
2021/04/11 10:50:27;;;;;;;2.30;0.53;;;9.10;99.90;;;;;;6020009;23;20195;-72
2021/04/11 10:53:23;;;;;;;2.53;0.70;;;9.00;99.90;;;;;;6063277;23;20188;-70
2021/04/11 10:56:11;;;;;;;2.40;0.50;;;8.90;99.90;;;;;;6067512;23;20219;-71
2021/04/11 10:59:13;;;;;;;1.10;0.50;;;8.50;99.90;;;;;;6069446;23;20181;-72
2021/04/11 11:01:50;;;;;;;1.33;0.47;;;8.30;99.90;;;;;;6068129;23;20241;-70
2021/04/11 11:04:52;;;;;;;1.03;0.60;;;8.20;99.90;;;;;;6067841;23;20639;-71
2021/04/11 11:07:50;;;;;;;1.50;0.70;;;8.10;99.90;;;;;;6068644;23;20207;-70
2021/04/11 11:10:33;;;;;;;0.80;0.67;;;8.00;99.90;;;;;;6067920;23;20183;-69
2021/04/11 11:13:28;;;;;;;0.53;0.40;;;8.00;99.90;;;;;;6068067;23;20184;-68
2021/04/11 11:16:10;;;;;;;1.63;0.47;;;7.90;99.90;;;;;;6067635;23;20206;-69
2021/04/11 11:19:12;;;;;;;4.00;1.00;;;7.90;99.90;;;;;;6066893;23;20636;-69
2021/04/11 11:22:07;;;;;;;2.50;0.80;;;7.90;99.90;;;;;;6066397;23;20194;-69
2021/04/11 11:25:06;;;;;;;1.37;0.60;;;7.80;99.90;;;;;;6068072;23;20184;-69
2021/04/11 11:27:50;;;;;;;0.53;0.50;;;7.80;99.90;;;;;;6020360;23;20233;-69
2021/04/11 11:30:26;;;;;;;1.33;0.60;;;7.70;99.90;;;;;;6068503;23;20231;-68
2021/04/11 11:33:06;;;;;;;6.47;0.80;;;7.60;99.90;;;;;;6068544;23;20247;-69
2021/04/11 11:35:34;;;;;;;1.83;0.60;;;7.50;99.90;;;;;;6068180;23;20211;-69
2021/04/11 11:38:09;;;;;;;1.60;0.60;;;7.40;99.90;;;;;;6067826;23;20196;-69
2021/04/11 11:40:38;;;;;;;1.07;0.50;;;7.40;99.90;;;;;;6068547;23;20199;-69
2021/04/11 11:43:19;;;;;;;1.40;0.60;;;7.40;99.90;;;;;;6068586;23;20180;-69
2021/04/11 11:46:02;;;;;;;0.90;0.50;;;7.60;99.90;;;;;;6068223;23;20215;-68
2021/04/11 11:48:37;;;;;;;2.30;0.80;;;7.70;99.90;;;;;;6067794;23;20189;-69
2021/04/11 11:51:09;;;;;;;2.60;0.70;;;7.90;99.90;;;;;;6067871;23;20202;-69
2021/04/11 11:53:40;;;;;;;2.33;0.77;;;8.00;99.90;;;;;;6069890;23;20187;-69
2021/04/11 11:56:17;;;;;;;0.50;0.50;;;8.10;99.90;;;;;;6069755;23;20208;-69
2021/04/11 11:58:49;;;;;;;2.03;0.80;;;8.30;99.90;;;;;;6070274;23;20181;-69
2021/04/11 12:01:33;;;;;;;1.20;0.73;;;8.50;99.90;;;;;;6070093;23;20180;-69
2021/04/11 12:04:24;;;;;;;1.33;0.63;;;8.60;99.90;;;;;;6069821;23;20184;-69
2021/04/11 12:06:56;;;;;;;2.20;0.60;;;8.70;99.90;;;;;;6070147;23;20543;-70
2021/04/11 12:09:26;;;;;;;1.67;0.80;;;8.80;99.90;;;;;;6070145;23;20187;-69
2021/04/11 12:11:58;;;;;;;4.37;0.77;;;8.90;99.90;;;;;;6070014;23;20185;-70
2021/04/11 12:14:32;;;;;;;3.10;0.90;;;8.90;99.90;;;;;;6070054;23;20180;-69
2021/04/11 12:17:05;;;;;;;1.50;0.70;;;8.90;99.90;;;;;;6070001;23;20215;-70
2021/04/11 12:19:37;;;;;;;0.70;0.50;;;8.90;99.90;;;;;;6069601;23;20180;-69
2021/04/11 12:22:09;;;;;;;1.33;0.63;;;8.90;99.90;;;;;;6069966;23;20188;-69
2021/04/11 12:24:39;;;;;;;1.47;0.60;;;8.90;99.90;;;;;;6069893;23;20184;-69
2021/04/11 12:27:09;;;;;;;3.07;0.50;;;9.10;99.90;;;;;;6069850;23;20212;-69
2021/04/11 12:29:46;;;;;;;0.50;0.30;;;9.20;99.90;;;;;;6069751;23;20511;-69
2021/04/11 12:32:17;;;;;;;3.40;0.60;;;9.20;99.90;;;;;;6069729;23;20210;-69
2021/04/11 12:34:50;;;;;;;0.50;0.40;;;9.30;99.90;;;;;;6069665;23;20180;-69
2021/04/11 12:37:24;;;;;;;3.83;0.60;;;9.50;99.90;;;;;;6069937;23;20195;-70
2021/04/11 12:40:06;;;;;;;0.90;0.40;;;9.70;99.90;;;;;;6069542;23;20184;-69
2021/04/11 12:42:40;;;;;;;0.40;0.37;;;9.90;99.90;;;;;;6069073;23;20181;-69
2021/04/11 12:45:15;;;;;;;1.30;0.50;;;9.90;99.90;;;;;;6068765;23;20259;-69
2021/04/11 12:47:49;;;;;;;0.60;0.40;;;9.90;99.90;;;;;;6069276;23;20231;-69
2021/04/11 12:50:28;;;;;;;3.63;0.50;;;10.10;99.90;;;;;;6068598;23;20194;-67
2021/04/11 12:53:02;;;;;;;1.13;0.30;;;10.40;99.90;;;;;;6068631;23;20216;-67
2021/04/11 12:55:32;;;;;;;3.07;0.40;;;10.30;99.20;;;;;;6068004;23;20676;-70
2021/04/11 12:58:06;;;;;;;1.87;0.40;;;10.10;99.10;;;;;;6068509;23;20664;-67
2021/04/11 13:00:37;;;;;;;2.20;0.80;;;9.90;98.40;;;;;;6068971;23;20179;-67
2021/04/11 13:03:13;;;;;;;1.07;0.50;;;9.70;99.10;;;;;;6067585;23;20204;-67
2021/04/11 13:05:44;;;;;;;0.73;0.57;;;9.50;99.90;;;;;;6068405;23;20263;-67
2021/04/11 13:08:16;;;;;;;1.20;0.30;;;9.50;99.60;;;;;;6069644;23;20191;-67
2021/04/11 13:10:59;;;;;;;0.90;0.50;;;9.60;99.90;;;;;;6068696;23;20635;-68
2021/04/11 13:13:29;;;;;;;1.90;0.50;;;9.70;99.90;;;;;;6069368;23;20240;-67
2021/04/11 13:16:03;;;;;;;1.23;0.40;;;9.80;99.90;;;;;;6069103;23;20201;-67
2021/04/11 13:18:44;;;;;;;3.80;0.30;;;9.80;99.20;;;;;;6067761;23;20294;-67
2021/04/11 13:21:20;;;;;;;0.60;0.43;;;9.90;98.60;;;;;;6069118;23;20519;-67
2021/04/11 13:23:53;;;;;;;1.23;0.50;;;9.90;99.00;;;;;;6068866;23;20497;-67
2021/04/11 13:26:26;;;;;;;0.73;0.43;;;10.00;98.70;;;;;;6069029;23;20215;-67
2021/04/11 13:29:04;;;;;;;0.90;0.50;;;10.00;98.90;;;;;;6069138;23;20189;-67
2021/04/11 13:31:40;;;;;;;2.97;0.50;;;9.70;99.20;;;;;;6069135;23;20500;-67
2021/04/11 13:34:13;;;;;;;1.07;0.30;;;9.70;99.30;;;;;;6068934;23;20202;-67
2021/04/11 13:36:43;;;;;;;3.30;0.50;;;9.70;99.50;;;;;;6069097;23;20210;-67
2021/04/11 13:39:14;;;;;;;1.67;0.80;;;9.60;99.80;;;;;;6068704;23;20528;-67
2021/04/11 13:42:26;;;;;;;1.83;0.60;;;9.60;99.90;;;;;;6068931;23;20184;-69
2021/04/11 13:45:35;;;;;;;3.80;0.57;;;9.60;99.90;;;;;;6056824;23;20204;-70
2021/04/11 13:48:31;;;;;;;0.83;0.50;;;9.60;99.80;;;;;;5953022;24;20191;-70
2021/04/11 13:51:11;;;;;;;0.53;0.40;;;9.80;99.40;;;;;;5951922;24;20244;-67
2021/04/11 13:53:49;;;;;;;1.10;0.30;;;9.90;99.80;;;;;;6045835;23;20180;-68
2021/04/11 13:56:22;;;;;;;1.50;0.60;;;9.80;98.70;;;;;;6068719;23;20204;-68
2021/04/11 13:58:53;;;;;;;0.60;0.40;;;9.60;98.40;;;;;;6069011;23;20187;-68
2021/04/11 14:01:31;;;;;;;0.60;0.50;;;9.50;99.10;;;;;;6068706;23;20184;-67
2021/04/11 14:04:04;;;;;;;2.30;0.70;;;9.30;98.70;;;;;;6068654;23;20191;-67
2021/04/11 14:06:34;;;;;;;0.93;0.47;;;9.30;99.60;;;;;;6068491;23;20552;-67
2021/04/11 14:09:05;;;;;;;2.33;0.43;;;9.20;99.70;;;;;;6069010;23;20208;-67
2021/04/11 14:11:35;;;;;;;2.83;0.63;;;9.30;99.40;;;;;;6068887;23;20184;-67
2021/04/11 14:14:06;;;;;;;4.07;0.57;;;9.20;97.80;;;;;;6068718;23;20549;-67
2021/04/11 14:16:44;;;;;;;1.27;0.50;;;9.30;98.00;;;;;;6068689;23;20200;-66
2021/04/11 14:19:17;;;;;;;2.00;0.90;;;9.40;97.30;;;;;;6068702;23;20239;-67
2021/04/11 14:21:48;;;;;;;1.27;0.47;;;9.60;98.30;;;;;;6068442;23;20662;-67
2021/04/11 14:24:27;;;;;;;1.60;0.40;;;9.70;97.90;;;;;;6068633;23;20185;-67
2021/04/11 14:27:01;;;;;;;1.87;0.50;;;9.60;96.70;;;;;;6068342;23;20212;-67
2021/04/11 14:29:36;;;;;;;0.50;0.40;;;9.40;97.50;;;;;;6068667;23;20180;-68
2021/04/11 14:32:07;;;;;;;1.07;0.40;;;9.60;97.80;;;;;;6068756;23;20186;-67
2021/04/11 14:34:41;;;;;;;1.03;0.57;;;9.80;97.70;;;;;;6068584;23;20181;-67
2021/04/11 14:37:18;;;;;;;1.70;0.83;;;9.90;97.50;;;;;;6068634;23;20233;-67
2021/04/11 14:39:50;;;;;;;0.83;0.40;;;9.90;95.60;;;;;;6068313;23;20183;-68
2021/04/11 14:42:21;;;;;;;1.53;0.40;;;9.80;95.90;;;;;;6068282;23;20624;-67
2021/04/11 14:44:53;;;;;;;0.50;0.47;;;9.80;96.20;;;;;;6068648;23;20201;-68
2021/04/11 14:47:26;;;;;;;3.10;0.50;;;9.70;96.20;;;;;;6068532;23;20212;-67
2021/04/11 14:50:07;;;;;;;5.70;0.70;;;9.60;96.90;;;;;;6068084;23;20199;-68
2021/04/11 14:52:45;;;;;;;1.23;0.50;;;9.60;97.10;;;;;;6068269;23;20184;-67
2021/04/11 14:55:15;;;;;;;0.60;0.60;;;9.70;97.10;;;;;;6068489;23;20215;-67
2021/04/11 14:57:54;;;;;;;1.83;0.60;;;9.70;97.90;;;;;;6068676;23;20184;-68
2021/04/11 15:00:29;;;;;;;0.90;0.60;;;9.60;97.50;;;;;;6068704;23;20211;-67
2021/04/11 15:03:03;;;;;;;2.20;0.60;;;9.30;97.20;;;;;;6068572;23;20231;-68
2021/04/11 15:05:35;;;;;;;0.80;0.40;;;9.10;97.70;;;;;;6068176;23;20200;-68
2021/04/11 15:08:12;;;;;;;1.47;0.60;;;9.00;98.10;;;;;;6062698;23;20180;-70
2021/04/11 15:10:49;;;;;;;0.80;0.50;;;8.90;98.30;;;;;;6066835;23;20180;-69
2021/04/11 15:13:23;;;;;;;6.60;0.80;;;9.10;99.20;;;;;;6066822;23;20187;-72
2021/04/11 15:15:58;;;;;;;0.40;0.40;;;9.20;99.00;;;;;;6065808;23;20232;-70
2021/04/11 15:18:34;;;;;;;1.77;0.70;;;9.00;98.00;;;;;;6066468;23;20184;-72
2021/04/11 15:21:15;;;;;;;2.67;0.53;;;8.90;98.50;;;;;;6066281;23;20578;-70
2021/04/11 15:23:46;;;;;;;2.17;0.70;;;8.80;98.40;;;;;;6067680;23;20180;-68
2021/04/11 15:26:20;;;;;;;0.40;0.40;;;8.70;98.60;;;;;;6067864;23;20677;-68
2021/04/11 15:28:50;;;;;;;2.77;0.60;;;8.90;98.40;;;;;;6070389;23;20567;-68
2021/04/11 15:31:21;;;;;;;1.17;0.40;;;9.20;98.00;;;;;;6070543;23;20249;-68
2021/04/11 15:34:05;;;;;;;0.77;0.40;;;9.40;97.30;;;;;;6070521;23;20186;-69
2021/04/11 15:36:39;;;;;;;4.07;0.80;;;9.40;96.90;;;;;;6070263;23;20200;-69
2021/04/11 15:39:16;;;;;;;0.70;0.40;;;9.40;96.70;;;;;;6070311;23;20181;-68
2021/04/11 15:41:59;;;;;;;3.70;0.50;;;9.20;94.20;;;;;;6070135;23;20180;-68
2021/04/11 15:44:38;;;;;;;3.10;0.50;;;9.30;95.90;;;;;;6066776;23;20246;-69
2021/04/11 15:47:11;;;;;;;1.27;0.40;;;9.30;95.70;;;;;;6070047;23;20561;-69
2021/04/11 15:49:40;;;;;;;1.37;0.30;;;9.40;95.60;;;;;;6070315;23;20200;-68
2021/04/11 15:52:11;;;;;;;0.80;0.37;;;9.30;94.60;;;;;;6069975;23;20231;-69
2021/04/11 15:54:45;;;;;;;1.27;0.60;;;9.30;95.50;;;;;;6069617;23;20188;-69
2021/04/11 15:57:18;;;;;;;3.40;0.53;;;9.40;94.50;;;;;;6069637;23;20235;-69
2021/04/11 15:59:56;;;;;;;2.10;0.37;;;9.50;95.60;;;;;;6069874;23;20180;-69
2021/04/11 16:02:28;;;;;;;1.07;0.33;;;9.50;95.40;;;;;;6069800;23;20198;-69
2021/04/11 16:05:08;;;;;;;0.50;0.40;;;9.50;95.20;;;;;;6069264;23;20485;-69
2021/04/11 16:07:40;;;;;;;1.00;0.40;;;9.50;95.20;;;;;;6069455;23;20693;-70
2021/04/11 16:10:09;;;;;;;1.10;0.33;;;9.60;95.50;;;;;;6064797;23;20695;-70
2021/04/11 16:13:03;;;;;;;0.80;0.33;;;9.50;95.00;;;;;;6067609;23;20231;-68
2021/04/11 16:15:35;;;;;;;0.53;0.40;;;9.40;94.70;;;;;;6068327;23;20204;-68
2021/04/11 16:18:32;;;;;;;0.80;0.50;;;9.40;95.60;;;;;;6067687;23;20188;-69
2021/04/11 16:21:18;;;;;;;0.77;0.40;;;9.20;95.40;;;;;;6028111;23;20188;-70
2021/04/11 16:24:04;;;;;;;1.97;0.60;;;9.00;95.40;;;;;;6067489;23;20199;-71
2021/04/11 16:26:36;;;;;;;2.80;0.40;;;8.80;96.40;;;;;;6067666;23;20219;-72
2021/04/11 16:29:14;;;;;;;0.87;0.37;;;8.80;96.40;;;;;;6068211;23;20184;-70
2021/04/11 16:31:52;;;;;;;0.60;0.33;;;8.80;96.00;;;;;;6067445;23;20181;-68
2021/04/11 16:34:29;;;;;;;1.73;0.50;;;8.90;96.60;;;;;;6067858;23;20192;-71
2021/04/11 16:37:06;;;;;;;0.80;0.50;;;8.90;97.80;;;;;;6068168;23;20191;-71
2021/04/11 16:39:44;;;;;;;2.50;0.43;;;9.00;97.90;;;;;;6066710;23;20188;-69
2021/04/11 16:42:24;;;;;;;2.63;0.40;;;9.10;96.90;;;;;;6067365;23;20191;-72
2021/04/11 16:45:00;;;;;;;0.87;0.40;;;9.00;96.40;;;;;;6067661;23;20299;-71
2021/04/11 16:47:36;;;;;;;2.80;0.60;;;9.00;96.20;;;;;;6067192;23;20550;-70
2021/04/11 16:50:14;;;;;;;1.20;0.33;;;9.00;95.90;;;;;;6067356;23;20192;-69
2021/04/11 16:53:05;;;;;;;1.63;0.50;;;8.90;96.40;;;;;;6067141;23;20184;-70
2021/04/11 16:55:36;;;;;;;2.67;0.50;;;8.80;96.80;;;;;;6067130;23;20222;-72
2021/04/11 16:58:08;;;;;;;0.60;0.30;;;8.80;97.10;;;;;;6069244;23;20268;-69
2021/04/11 17:00:40;;;;;;;1.50;0.37;;;8.70;97.60;;;;;;6069267;23;20185;-70
2021/04/11 17:03:20;;;;;;;0.60;0.30;;;8.80;96.70;;;;;;6069087;23;20191;-68
2021/04/11 17:05:58;;;;;;;1.77;0.50;;;8.70;96.50;;;;;;6069078;23;20251;-69
2021/04/11 17:08:33;;;;;;;1.87;0.50;;;8.60;96.30;;;;;;6068520;23;20631;-69
2021/04/11 17:11:03;;;;;;;2.97;0.40;;;8.50;95.90;;;;;;6068582;23;20183;-67
2021/04/11 17:13:58;;;;;;;1.07;0.50;;;8.50;96.60;;;;;;6068363;23;20632;-68
2021/04/11 17:16:36;;;;;;;0.90;0.50;;;8.50;95.40;;;;;;6068465;23;20279;-68
2021/04/11 17:19:31;;;;;;;1.00;0.20;;;8.50;95.80;;;;;;6069168;23;20192;-69
2021/04/11 17:22:02;;;;;;;0.70;0.40;;;8.40;95.90;;;;;;6069203;23;20232;-69
2021/04/11 17:24:33;;;;;;;0.87;0.50;;;8.30;95.90;;;;;;6068997;23;20263;-68
2021/04/11 17:27:08;;;;;;;1.63;0.30;;;8.10;96.60;;;;;;6068898;23;20219;-68
2021/04/11 17:29:39;;;;;;;1.33;0.40;;;8.10;96.70;;;;;;6068977;23;20230;-70
2021/04/11 17:32:15;;;;;;;1.23;0.60;;;8.10;96.70;;;;;;6069052;23;20186;-68
2021/04/11 17:34:52;;;;;;;1.13;0.50;;;8.00;97.10;;;;;;6068237;23;20195;-68
2021/04/11 17:37:26;;;;;;;1.20;0.60;;;8.00;97.70;;;;;;6068670;23;20188;-68
2021/04/11 17:39:53;;;;;;;0.67;0.40;;;8.00;97.80;;;;;;6068988;23;20188;-69
2021/04/11 17:42:35;;;;;;;0.60;0.40;;;7.90;97.60;;;;;;6069018;23;20211;-69
2021/04/11 17:45:09;;;;;;;0.63;0.37;;;7.70;97.40;;;;;;6068209;23;20679;-68
2021/04/11 17:48:01;;;;;;;0.60;0.37;;;7.60;98.30;;;;;;6068785;23;20217;-69
2021/04/11 17:50:38;;;;;;;1.27;0.37;;;7.60;98.90;;;;;;6068060;23;20628;-69
2021/04/11 17:53:18;;;;;;;2.13;0.73;;;7.50;98.90;;;;;;6068855;23;20176;-68
2021/04/11 17:55:51;;;;;;;2.00;0.80;;;7.60;99.10;;;;;;6068861;23;20205;-68
2021/04/11 17:58:38;;;;;;;4.00;0.50;;;7.70;99.60;;;;;;6068422;23;20632;-68
2021/04/11 18:01:13;;;;;;;1.43;0.60;;;7.60;99.50;;;;;;6068369;23;20644;-68
2021/04/11 18:03:48;;;;;;;0.70;0.50;;;7.40;99.90;;;;;;6068141;23;20179;-68
2021/04/11 18:06:27;;;;;;;2.57;0.60;;;7.40;99.90;;;;;;6068403;23;20208;-68
2021/04/11 18:08:56;;;;;;;1.60;0.50;;;7.30;99.90;;;;;;6068318;23;20194;-68
2021/04/11 18:11:28;;;;;;;4.20;1.37;;;7.30;99.90;;;;;;6068304;23;20232;-68
2021/04/11 18:14:04;;;;;;;5.30;0.50;;;7.20;99.90;;;;;;6068040;23;20185;-68
2021/04/11 18:16:40;;;;;;;1.43;0.50;;;7.10;99.90;;;;;;6068572;23;20204;-68
2021/04/11 18:19:18;;;;;;;1.63;0.50;;;7.10;99.90;;;;;;6068778;23;20180;-68
2021/04/11 18:21:54;;;;;;;4.17;0.50;;;7.00;99.90;;;;;;6068632;23;20183;-68
2021/04/11 18:24:34;;;;;;;0.87;0.57;;;6.90;99.90;;;;;;6068217;23;20183;-68
2021/04/11 18:27:09;;;;;;;1.03;0.60;;;6.90;99.90;;;;;;6068281;23;20212;-68
2021/04/11 18:29:48;;;;;;;1.57;0.50;;;6.80;99.90;;;;;;6068346;23;20184;-68
2021/04/11 18:32:25;;;;;;;2.57;0.73;;;6.80;99.90;;;;;;6068665;23;20627;-69
2021/04/11 18:34:58;;;;;;;2.30;0.60;;;6.90;99.90;;;;;;6068499;23;20200;-68
2021/04/11 18:37:30;;;;;;;2.80;0.47;;;6.70;99.90;;;;;;6068191;23;20191;-69
2021/04/11 18:40:09;;;;;;;5.00;0.53;;;6.60;99.90;;;;;;6068643;23;20180;-69
2021/04/11 18:42:44;;;;;;;1.60;0.67;;;6.50;99.90;;;;;;6068194;23;20184;-69
2021/04/11 18:45:18;;;;;;;3.73;0.70;;;6.50;99.90;;;;;;6068439;23;20204;-68
2021/04/11 18:47:51;;;;;;;3.70;0.97;;;6.50;99.90;;;;;;6067957;23;20681;-68
2021/04/11 18:50:43;;;;;;;2.90;0.70;;;6.50;99.90;;;;;;6067741;23;20247;-68
2021/04/11 18:53:36;;;;;;;2.77;0.60;;;6.40;99.90;;;;;;6063416;23;20255;-69
2021/04/11 18:56:17;;;;;;;1.27;0.63;;;6.30;99.90;;;;;;6068130;23;20212;-69
2021/04/11 18:58:53;;;;;;;1.30;0.57;;;6.20;99.90;;;;;;6068295;23;20181;-68
2021/04/11 19:01:22;;;;;;;2.93;0.70;;;6.10;99.90;;;;;;6067631;23;20512;-68
2021/04/11 19:04:01;;;;;;;0.77;0.50;;;6.20;99.90;;;;;;6068066;23;20490;-68
2021/04/11 19:06:34;;;;;;;1.30;0.60;;;6.20;99.90;;;;;;6068116;23;20655;-68
2021/04/11 19:09:37;;;;;;;2.53;0.67;;;6.10;99.90;;;;;;6067834;23;20477;-69
2021/04/11 19:12:14;;;;;;;3.03;0.80;;;6.10;99.90;;;;;;6068678;23;20180;-69
2021/04/11 19:14:45;;;;;;;1.83;0.90;;;6.10;99.90;;;;;;6068349;23;20187;-69
2021/04/11 19:17:36;;;;;;;1.70;0.80;;;6.10;99.90;;;;;;6068413;23;20203;-67
2021/04/11 19:20:13;;;;;;;0.77;0.40;;;6.00;99.90;;;;;;6068064;23;20180;-69
2021/04/11 19:23:17;;;;;;;1.87;0.60;;;6.00;99.90;;;;;;6067963;23;20184;-69
2021/04/11 19:25:59;;;;;;;1.63;0.60;;;5.90;99.90;;;;;;6067622;23;20204;-69
2021/04/11 19:28:53;;;;;;;2.63;0.80;;;5.90;99.90;;;;;;6067867;23;20188;-69
2021/04/11 19:31:40;;;;;;;4.30;1.37;;;5.90;99.90;;;;;;6056758;23;20533;-68
2021/04/11 19:34:32;;;;;;;2.40;0.60;;;5.90;99.90;;;;;;6067773;23;20670;-69
2021/04/11 19:37:19;;;;;;;2.70;0.77;;;5.90;99.90;;;;;;6067857;23;20184;-68
2021/04/11 19:40:19;;;;;;;3.27;0.83;;;5.90;99.90;;;;;;6067944;23;20187;-68
2021/04/11 19:43:19;;;;;;;3.10;0.90;;;5.70;99.90;;;;;;6068039;23;20184;-68
2021/04/11 19:46:01;;;;;;;2.33;0.70;;;5.70;99.90;;;;;;6043446;23;20204;-68
2021/04/11 19:49:05;;;;;;;2.73;0.80;;;5.70;99.90;;;;;;6068231;23;20562;-69
2021/04/11 19:52:02;;;;;;;1.83;0.80;;;5.70;99.90;;;;;;6058377;23;20180;-68
2021/04/11 19:54:28;;;;;;;2.80;0.63;;;5.60;99.90;;;;;;6067954;23;20502;-69
2021/04/11 19:57:23;;;;;;;1.17;0.60;;;5.50;99.90;;;;;;6068203;23;20607;-67
2021/04/11 20:00:25;;;;;;;1.83;0.70;;;5.60;99.90;;;;;;6067833;23;20263;-68
2021/04/11 20:03:22;;;;;;;4.07;0.77;;;5.70;99.90;;;;;;6067950;23;20565;-68
2021/04/11 20:06:11;;;;;;;0.80;0.40;;;5.70;99.90;;;;;;6067631;23;20679;-68
2021/04/11 20:08:48;;;;;;;2.17;0.70;;;5.60;99.90;;;;;;6068220;23;20271;-68
2021/04/11 20:11:29;;;;;;;0.83;0.43;;;5.50;99.90;;;;;;6067671;23;20192;-69
2021/04/11 20:14:17;;;;;;;0.93;0.40;;;5.40;99.90;;;;;;6068909;23;20184;-68
2021/04/11 20:17:05;;;;;;;6.23;0.70;;;5.30;99.90;;;;;;6069876;23;20200;-69
2021/04/11 20:20:04;;;;;;;1.07;0.73;;;5.30;99.90;;;;;;6069206;23;20248;-69
2021/04/11 20:22:38;;;;;;;2.90;0.80;;;5.20;99.90;;;;;;6069620;23;20181;-68
2021/04/11 20:25:23;;;;;;;3.17;0.90;;;5.20;99.90;;;;;;6069768;23;20215;-68
2021/04/11 20:28:28;;;;;;;1.73;0.63;;;5.30;99.90;;;;;;6069766;23;20212;-69
2021/04/11 20:31:17;;;;;;;1.67;0.80;;;5.30;99.90;;;;;;6069188;23;20184;-69
2021/04/11 20:33:51;;;;;;;1.70;0.80;;;5.30;99.90;;;;;;6069730;23;20180;-68
2021/04/11 20:36:44;;;;;;;4.87;1.47;;;5.20;99.90;;;;;;6069304;23;20675;-69
2021/04/11 20:39:22;;;;;;;2.80;0.70;;;5.20;99.90;;;;;;6007353;23;20242;-68
2021/04/11 20:42:09;;;;;;;2.03;0.80;;;5.20;99.90;;;;;;6069676;23;20180;-68
2021/04/11 20:44:47;;;;;;;2.07;0.90;;;5.20;99.90;;;;;;6064537;23;20188;-68
2021/04/11 20:47:38;;;;;;;0.80;0.60;;;5.30;99.90;;;;;;6069577;23;20211;-68
2021/04/11 20:50:17;;;;;;;1.43;0.60;;;5.20;99.90;;;;;;6069044;23;20188;-68
2021/04/11 20:53:18;;;;;;;5.33;0.70;;;5.30;99.90;;;;;;6069622;23;20187;-68
2021/04/11 20:56:03;;;;;;;2.07;0.63;;;5.30;99.90;;;;;;6069600;23;20211;-69
2021/04/11 20:59:05;;;;;;;3.43;0.83;;;5.20;99.90;;;;;;6069499;23;20192;-69
2021/04/11 21:01:39;;;;;;;5.57;0.80;;;5.10;99.90;;;;;;6069935;23;20187;-68
2021/04/11 21:04:16;;;;;;;0.57;0.53;;;5.10;99.90;;;;;;6069492;23;20180;-68
2021/04/11 21:07:01;;;;;;;1.93;0.60;;;5.10;99.90;;;;;;6069569;23;20223;-68
2021/04/11 21:09:40;;;;;;;1.97;0.73;;;5.00;99.90;;;;;;6069841;23;20180;-68
2021/04/11 21:12:51;;;;;;;2.67;0.50;;;4.90;99.90;;;;;;6069381;23;20180;-68
2021/04/11 21:15:28;;;;;;;2.20;0.90;;;4.90;99.90;;;;;;6069384;23;20211;-68
2021/04/11 21:18:17;;;;;;;1.37;0.67;;;5.00;99.90;;;;;;6069161;23;20192;-68
2021/04/11 21:21:28;;;;;;;2.43;0.57;;;5.00;99.90;;;;;;6068639;23;20696;-68
2021/04/11 21:24:17;;;;;;;0.50;0.50;;;5.00;99.90;;;;;;6009214;23;20190;-68
2021/04/11 21:27:19;;;;;;;0.77;0.60;;;4.90;99.90;;;;;;6063265;23;20220;-68
2021/04/11 21:30:00;;;;;;;1.20;0.70;;;4.90;99.90;;;;;;6054101;23;20180;-68
2021/04/11 21:32:40;;;;;;;1.93;1.00;;;4.80;99.90;;;;;;6069215;23;20180;-68
2021/04/11 21:35:22;;;;;;;1.60;0.60;;;4.80;99.90;;;;;;6068518;23;20219;-69
2021/04/11 21:38:01;;;;;;;2.70;0.80;;;4.80;99.90;;;;;;6068545;23;20581;-68
2021/04/11 21:40:30;;;;;;;2.40;0.73;;;4.80;99.90;;;;;;6069201;23;20184;-68
2021/04/11 21:43:02;;;;;;;0.83;0.50;;;4.70;99.90;;;;;;6068889;23;20702;-68
2021/04/11 21:45:37;;;;;;;1.03;0.53;;;4.70;99.90;;;;;;6069032;23;20208;-67
2021/04/11 21:48:43;;;;;;;1.73;0.70;;;4.70;99.90;;;;;;6069616;23;20212;-68
2021/04/11 21:51:24;;;;;;;2.70;0.80;;;4.70;99.90;;;;;;6068826;23;20187;-68
2021/04/11 21:54:07;;;;;;;1.13;0.50;;;4.70;99.90;;;;;;6068903;23;20184;-68
2021/04/11 21:56:56;;;;;;;1.30;0.70;;;4.70;99.90;;;;;;6068834;23;20208;-68
2021/04/11 21:59:39;;;;;;;0.80;0.40;;;4.60;99.90;;;;;;6068830;23;20184;-68
2021/04/11 22:02:29;;;;;;;2.43;0.70;;;4.60;99.90;;;;;;6068746;23;20478;-68
2021/04/11 22:05:08;;;;;;;3.50;0.67;;;4.60;99.90;;;;;;6068473;23;20223;-68
2021/04/11 22:07:41;;;;;;;1.30;0.70;;;4.60;99.90;;;;;;6068699;23;20294;-69
2021/04/11 22:10:17;;;;;;;0.80;0.60;;;4.50;99.90;;;;;;6067335;23;20239;-68
2021/04/11 22:12:48;;;;;;;2.67;0.60;;;4.40;99.90;;;;;;6067545;23;20192;-68
